Time;durP1;ratioP1;P1;durP2;ratioP2;P2;SDS_P1;SDS_P2;PMS_P1;PMS_P2;Temp;Humidity;BMP_temperature;BMP_pressure;BME280_temperature;BME280_humidity;BME280_pressure;Samples;Min_cycle;Max_cycle;Signal;HPM_P1;HPM_P2
2023/07/28 00:02:30;;;;;;;3;1.9;;;;;;;13.58;92.14453;933.4033;;;;
2023/07/28 00:04:55;;;;;;;2.9;2.1;;;;;;;13.41;93.13281;933.3958;;;;
2023/07/28 00:11:18;;;;;;;2.2;2;;;;;;;13.18;94.16211;933.324;;;;
2023/07/28 00:13:43;;;;;;;3.4;2.2;;;;;;;12.98;95.63477;933.361;;;;
2023/07/28 00:16:14;;;;;;;3.7;2.2;;;;;;;12.89;96.20117;933.4089;;;;
2023/07/28 00:18:39;;;;;;;3.2;2.2;;;;;;;13.08;95.54199;933.2982;;;;
2023/07/28 00:21:05;;;;;;;2.6;2.1;;;;;;;13.26;94.14551;933.358;;;;
2023/07/28 00:23:30;;;;;;;3.5;2.1;;;;;;;13.24;93.97852;933.3365;;;;
2023/07/28 00:25:55;;;;;;;3.2;2.4;;;;;;;13.3;93.7627;933.3065;;;;
2023/07/28 00:28:20;;;;;;;2.8;1.9;;;;;;;13.4;92.91016;933.2008;;;;
2023/07/28 00:30:47;;;;;;;3.7;2.2;;;;;;;13.44;92.17285;933.2191;;;;
2023/07/28 00:33:15;;;;;;;2.7;2.1;;;;;;;13.45;92.12891;933.2877;;;;
2023/07/28 00:35:40;;;;;;;3.5;2.5;;;;;;;13.43;92.33203;933.2503;;;;
2023/07/28 00:38:06;;;;;;;2.9;2;;;;;;;13.41;92.46582;933.2255;;;;
2023/07/28 00:40:33;;;;;;;2.7;2.1;;;;;;;13.35;92.60449;933.3731;;;;
2023/07/28 00:43:02;;;;;;;3;2.5;;;;;;;13.18;93.3125;933.3208;;;;
2023/07/28 00:45:24;;;;;;;3.6;2.4;;;;;;;13.04;94.24609;933.3041;;;;
2023/07/28 00:47:49;;;;;;;3;2.2;;;;;;;13.01;94.66699;933.2364;;;;
2023/07/28 00:50:16;;;;;;;2.5;2;;;;;;;13.02;94.89844;933.2714;;;;
2023/07/28 00:52:41;;;;;;;3.5;2.2;;;;;;;12.92;95.45117;933.2416;;;;
2023/07/28 00:55:50;;;;;;;3.2;2.6;;;;;;;12.99;95.50879;933.2659;;;;
2023/07/28 00:58:15;;;;;;;3;2.2;;;;;;;13.1;94.3418;933.2756;;;;
2023/07/28 01:00:40;;;;;;;2.4;2.1;;;;;;;13.05;94.33008;933.2736;;;;
2023/07/28 01:03:07;;;;;;;2.3;2.1;;;;;;;12.98;94.58984;933.3306;;;;
2023/07/28 01:05:33;;;;;;;2.5;1.9;;;;;;;13.06;94.04297;933.3095;;;;
2023/07/28 01:08:01;;;;;;;2.7;1.7;;;;;;;13.13;93.68164;933.241;;;;
2023/07/28 01:10:27;;;;;;;4.7;2.2;;;;;;;12.97;93.93359;933.2172;;;;
2023/07/28 01:12:52;;;;;;;2.9;2.3;;;;;;;12.76;95.48242;933.3376;;;;
2023/07/28 01:15:17;;;;;;;3.7;2.4;;;;;;;12.57;96.81738;933.3281;;;;
2023/07/28 01:17:43;;;;;;;2.6;2;;;;;;;12.73;96.52051;933.2516;;;;
2023/07/28 01:20:14;;;;;;;2.4;2.1;;;;;;;12.84;95.10938;933.2863;;;;
2023/07/28 01:22:39;;;;;;;3.1;2.3;;;;;;;12.99;94.29395;933.265;;;;
2023/07/28 01:25:06;;;;;;;3.7;2.4;;;;;;;13.06;93.6416;933.3688;;;;
2023/07/28 01:27:32;;;;;;;3.6;2.3;;;;;;;13.02;93.42871;933.3042;;;;
2023/07/28 01:30:00;;;;;;;3.1;2.5;;;;;;;13.01;93.84961;933.4272;;;;
2023/07/28 01:35:44;;;;;;;4;2.3;;;;;;;12.97;94.11719;933.2708;;;;
2023/07/28 01:38:12;;;;;;;3.7;2.2;;;;;;;12.77;94.92383;933.3775;;;;
2023/07/28 01:40:35;;;;;;;2.5;2.3;;;;;;;12.72;94.91406;933.353;;;;
2023/07/28 01:43:01;;;;;;;2.6;2.1;;;;;;;12.81;94.89746;933.3181;;;;
2023/07/28 01:45:26;;;;;;;2.4;2.2;;;;;;;12.88;94.1875;933.3873;;;;
2023/07/28 01:47:54;;;;;;;3.6;2.3;;;;;;;12.91;93.78418;933.3128;;;;
2023/07/28 01:50:19;;;;;;;2.7;1.9;;;;;;;12.81;93.86426;933.39;;;;
2023/07/28 01:52:48;;;;;;;3.3;1.9;;;;;;;12.73;94.58105;933.2531;;;;
2023/07/28 01:55:13;;;;;;;2.7;2.3;;;;;;;12.59;94.90723;933.3448;;;;
2023/07/28 01:57:41;;;;;;;3;2.1;;;;;;;12.63;94.96289;933.3033;;;;
2023/07/28 02:00:09;;;;;;;2.7;2.1;;;;;;;12.45;95.88477;933.3329;;;;
2023/07/28 02:05:32;;;;;;;3.5;2.4;;;;;;;12.08;98.64648;933.3198;;;;
2023/07/28 02:07:57;;;;;;;2.4;2;;;;;;;12.19;98.6123;933.2204;;;;
2023/07/28 02:10:25;;;;;;;4.3;2.3;;;;;;;12.13;98.66699;933.3069;;;;
2023/07/28 02:12:50;;;;;;;4.4;2.3;;;;;;;12.34;97.87891;933.2941;;;;
2023/07/28 02:15:19;;;;;;;2.9;2.4;;;;;;;12.36;97.20605;933.2581;;;;
2023/07/28 02:17:44;;;;;;;2.9;2.4;;;;;;;12.14;98.26953;933.2006;;;;
2023/07/28 02:20:17;;;;;;;5.5;2.5;;;;;;;12.05;99.14063;933.1956;;;;
2023/07/28 02:22:43;;;;;;;2.6;2.2;;;;;;;12.05;99.22266;933.2809;;;;
2023/07/28 02:25:08;;;;;;;4.4;2.6;;;;;;;11.89;100;933.3084;;;;
2023/07/28 02:27:37;;;;;;;2.4;2.1;;;;;;;12.1;99.9209;933.2416;;;;
2023/07/28 02:30:04;;;;;;;3.7;2.3;;;;;;;12.14;99.74805;933.2757;;;;
2023/07/28 02:32:30;;;;;;;3;2.3;;;;;;;12.17;99.1123;933.2125;;;;
2023/07/28 02:34:57;;;;;;;3.4;2.5;;;;;;;12.27;98.16309;933.2985;;;;
2023/07/28 02:37:22;;;;;;;3.2;2.3;;;;;;;12.25;98.01855;933.2587;;;;
2023/07/28 02:39:47;;;;;;;2.8;2.3;;;;;;;12.31;97.66602;933.2656;;;;
2023/07/28 02:42:12;;;;;;;2.6;2.4;;;;;;;12.29;98.15332;933.2976;;;;
2023/07/28 02:44:37;;;;;;;3.2;2;;;;;;;12.16;98.52539;933.2996;;;;
2023/07/28 02:47:05;;;;;;;3.7;2.3;;;;;;;12.32;97.51758;933.3565;;;;
2023/07/28 02:49:30;;;;;;;3.3;1.9;;;;;;;12.4;96.95117;933.2826;;;;
2023/07/28 02:51:55;;;;;;;2.4;1.9;;;;;;;12.32;97.64551;933.295;;;;
2023/07/28 02:54:21;;;;;;;3.3;2.1;;;;;;;12.42;97.09473;933.278;;;;
2023/07/28 02:57:19;;;;;;;3.4;2.6;;;;;;;12.39;96.90527;933.2906;;;;
2023/07/28 02:59:47;;;;;;;3.2;2.3;;;;;;;12.34;97.29395;933.2941;;;;
2023/07/28 03:02:12;;;;;;;3.2;2.5;;;;;;;12.48;96.2373;933.284;;;;
2023/07/28 03:04:38;;;;;;;3;2.2;;;;;;;12.51;95.95605;933.2598;;;;
2023/07/28 03:07:04;;;;;;;3;2.2;;;;;;;12.54;96.12305;933.2717;;;;
2023/07/28 03:09:29;;;;;;;2.4;2;;;;;;;12.59;95.7793;933.3585;;;;
2023/07/28 03:11:54;;;;;;;2.6;2.1;;;;;;;12.47;96.18945;933.3113;;;;
2023/07/28 03:14:21;;;;;;;3.1;2.2;;;;;;;12.34;97.21387;933.3205;;;;
2023/07/28 03:16:46;;;;;;;3.1;2.3;;;;;;;12.33;97.5791;933.3165;;;;
2023/07/28 03:19:28;;;;;;;3.3;2.4;;;;;;;12.45;97.66406;933.2794;;;;
2023/07/28 03:21:53;;;;;;;3.2;2.1;;;;;;;12.62;96.4502;933.2131;;;;
2023/07/28 03:24:18;;;;;;;3;2.2;;;;;;;12.57;96.15332;933.2459;;;;
2023/07/28 03:26:45;;;;;;;3.6;2.5;;;;;;;12.47;96.56543;933.1995;;;;
2023/07/28 03:29:10;;;;;;;2.5;2.1;;;;;;;12.48;96.75293;933.1913;;;;
2023/07/28 03:31:36;;;;;;;5.2;2.8;;;;;;;12.23;98.08398;933.2156;;;;
2023/07/28 03:34:12;;;;;;;5.1;2.4;;;;;;;12.19;98.83008;933.1956;;;;
2023/07/28 03:36:35;;;;;;;3.4;2.4;;;;;;;12.11;99.73926;933.2128;;;;
2023/07/28 03:39:07;;;;;;;3.2;2.2;;;;;;;12.02;100;933.2172;;;;
2023/07/28 03:41:33;;;;;;;3.7;2.4;;;;;;;12.06;100;933.2218;;;;
2023/07/28 03:43:58;;;;;;;4.4;2.6;;;;;;;12.07;100;933.1937;;;;
2023/07/28 03:46:24;;;;;;;3.4;2.5;;;;;;;12.13;100;933.1305;;;;
2023/07/28 03:48:49;;;;;;;3.4;2.4;;;;;;;12.24;99.67871;933.1813;;;;
2023/07/28 03:51:21;;;;;;;3.8;2.7;;;;;;;12.51;98.88086;933.1313;;;;
2023/07/28 03:54:36;;;;;;;3;2.3;;;;;;;12.68;97.45117;933.1057;;;;
2023/07/28 03:57:02;;;;;;;2.5;2.3;;;;;;;12.66;97.57129;933.1473;;;;
2023/07/28 03:59:27;;;;;;;3.1;2.3;;;;;;;12.86;97.03223;933.1821;;;;
2023/07/28 04:02:35;;;;;;;2.6;2.2;;;;;;;12.95;95.8584;933.2054;;;;
2023/07/28 04:05:00;;;;;;;3.2;2.1;;;;;;;12.98;95.97949;933.1692;;;;
2023/07/28 04:07:28;;;;;;;3.1;2.4;;;;;;;12.89;96.28125;933.1747;;;;
2023/07/28 04:12:18;;;;;;;2.3;2;;;;;;;12.88;96.73828;933.1476;;;;
2023/07/28 04:14:49;;;;;;;2.5;2;;;;;;;13.11;95.84668;933.1125;;;;
2023/07/28 04:17:14;;;;;;;3.1;2.3;;;;;;;13.21;95.375;933.187;;;;
2023/07/28 04:19:40;;;;;;;4;2.2;;;;;;;13.37;94.9502;933.1027;;;;
2023/07/28 04:22:05;;;;;;;2.3;2;;;;;;;13.23;95.11621;933.1192;;;;
2023/07/28 04:24:30;;;;;;;3.5;2.5;;;;;;;13.3;94.92285;933.1778;;;;
2023/07/28 04:26:55;;;;;;;3;2.2;;;;;;;13.39;94.5293;933.1321;;;;
2023/07/28 04:29:26;;;;;;;2.9;2.3;;;;;;;13.42;94.53711;933.1864;;;;
2023/07/28 04:32:07;;;;;;;3.7;2.6;;;;;;;13.39;94.16113;933.1976;;;;
2023/07/28 04:34:20;;;;;;;3.3;2.3;;;;;;;13.43;94.46777;933.1312;;;;
2023/07/28 04:36:47;;;;;;;3;2;;;;;;;13.25;95.1543;933.1534;;;;
2023/07/28 04:39:17;;;;;;;3;2.3;;;;;;;13.26;95.66211;933.0765;;;;
2023/07/28 04:41:43;;;;;;;3.5;2.4;;;;;;;13.32;95.48047;933.0648;;;;
2023/07/28 04:44:08;;;;;;;2.9;2.1;;;;;;;13.36;95.71875;933.0956;;;;
2023/07/28 04:46:33;;;;;;;2.3;2;;;;;;;13.49;94.94141;932.9738;;;;
2023/07/28 04:48:58;;;;;;;3.6;2.2;;;;;;;13.6;94.22949;933.0463;;;;
2023/07/28 04:51:24;;;;;;;3;1.9;;;;;;;13.85;93.3291;933.0865;;;;
2023/07/28 04:53:49;;;;;;;3.1;2.3;;;;;;;14.01;92.29395;933.1055;;;;
2023/07/28 04:56:14;;;;;;;2.4;2.2;;;;;;;14.17;91.54492;933.0421;;;;
2023/07/28 04:58:42;;;;;;;5.2;2.7;;;;;;;13.97;92.42383;933.1594;;;;
2023/07/28 05:04:37;;;;;;;3.5;2.2;;;;;;;14.18;90.75293;933.0563;;;;
2023/07/28 05:07:02;;;;;;;4.9;2.3;;;;;;;14.13;91.12109;933.1202;;;;
2023/07/28 05:09:28;;;;;;;3;2.2;;;;;;;14.22;91.03809;933.1786;;;;
2023/07/28 05:11:55;;;;;;;2.5;2.3;;;;;;;14.25;90.91699;933.2775;;;;
2023/07/28 05:14:20;;;;;;;5.8;2.9;;;;;;;14.3;90.68457;933.2689;;;;
2023/07/28 05:16:46;;;;;;;4.3;2.6;;;;;;;14.33;90.67871;933.2997;;;;
2023/07/28 05:19:11;;;;;;;4.6;3;;;;;;;14.39;90.81641;933.3839;;;;
2023/07/28 05:21:36;;;;;;;3.6;2.8;;;;;;;14.61;90.36816;933.4624;;;;
2023/07/28 05:24:02;;;;;;;4.4;2.7;;;;;;;14.61;91.00195;933.4864;;;;
2023/07/28 05:26:27;;;;;;;3.8;2.5;;;;;;;14.66;91.38184;933.587;;;;
2023/07/28 05:28:55;;;;;;;3.3;2.3;;;;;;;14.78;90.3252;933.5757;;;;
2023/07/28 05:31:20;;;;;;;3;2.2;;;;;;;14.54;89.94043;933.5731;;;;
2023/07/28 05:33:46;;;;;;;2.8;2.5;;;;;;;14.4;91.75586;933.5655;;;;
2023/07/28 05:36:11;;;;;;;4.1;2.2;;;;;;;14.62;91.00586;933.6669;;;;
2023/07/28 05:38:37;;;;;;;3.9;2.3;;;;;;;14.78;91.02637;933.8114;;;;
2023/07/28 05:41:03;;;;;;;4.3;2.7;;;;;;;14.87;90.96289;933.8425;;;;
2023/07/28 05:43:28;;;;;;;4;2.9;;;;;;;14.75;89.38574;933.8358;;;;
2023/07/28 05:45:53;;;;;;;4.6;3.1;;;;;;;14.66;90.86328;933.8323;;;;
2023/07/28 05:48:21;;;;;;;5.3;3;;;;;;;14.78;91.28027;933.8932;;;;
2023/07/28 05:50:51;;;;;;;5.6;3;;;;;;;14.9;90.99316;933.9374;;;;
2023/07/28 05:53:15;;;;;;;3.9;2.8;;;;;;;15;90.6123;933.9207;;;;
2023/07/28 05:55:47;;;;;;;5.1;2.7;;;;;;;15;90.7373;933.8831;;;;
2023/07/28 05:58:15;;;;;;;4.5;2.8;;;;;;;15.04;91.48438;933.9645;;;;
2023/07/28 06:00:41;;;;;;;4.8;2.9;;;;;;;15.17;91.28223;934.0475;;;;
2023/07/28 06:03:08;;;;;;;6;3.1;;;;;;;15.3;90.51074;934.1735;;;;
2023/07/28 06:05:33;;;;;;;4.6;2.8;;;;;;;15.4;90.37109;934.2866;;;;
2023/07/28 06:08:01;;;;;;;3.5;2.7;;;;;;;15.48;90.67676;934.3329;;;;
2023/07/28 06:10:26;;;;;;;4.4;3.2;;;;;;;15.58;89.74805;934.3315;;;;
2023/07/28 06:12:51;;;;;;;4.9;2.8;;;;;;;15.6;90.1582;934.293;;;;
2023/07/28 06:15:19;;;;;;;7;3.4;;;;;;;15.61;90.67969;934.3289;;;;
2023/07/28 06:17:44;;;;;;;7.9;3.3;;;;;;;15.51;91.67578;934.3134;;;;
2023/07/28 06:20:13;;;;;;;5;2.8;;;;;;;15.58;91.58691;934.4238;;;;
2023/07/28 06:22:38;;;;;;;3.9;2.8;;;;;;;15.6;91.97168;934.3892;;;;
2023/07/28 06:25:07;;;;;;;4.1;2.6;;;;;;;15.68;93.06348;934.426;;;;
2023/07/28 06:27:36;;;;;;;2.8;2.4;;;;;;;16.66;90.63086;934.3847;;;;
2023/07/28 06:30:01;;;;;;;3.1;2.3;;;;;;;18.26;79.62012;934.264;;;;
2023/07/28 06:35:49;;;;;;;3.9;2.1;;;;;;;18.83;73.72949;934.2327;;;;
2023/07/28 06:38:17;;;;;;;3.5;1.8;;;;;;;18.81;75.49512;934.282;;;;
2023/07/28 06:40:42;;;;;;;2.6;2.2;;;;;;;19.14;74.01367;934.1922;;;;
2023/07/28 06:43:15;;;;;;;6.3;2.8;;;;;;;19.36;71.70898;934.2715;;;;
2023/07/28 06:45:40;;;;;;;3.2;2.2;;;;;;;19.88;70.51074;934.2997;;;;
2023/07/28 06:48:06;;;;;;;4.8;2.6;;;;;;;20.55;69.58984;934.3;;;;
2023/07/28 06:56:04;;;;;;;3;2.3;;;;;;;20.52;68.26465;934.25;;;;
2023/07/28 06:58:31;;;;;;;4.7;2;;;;;;;21.72;63.97559;934.2036;;;;
2023/07/28 07:10:49;;;;;;;2.3;1.7;;;;;;;25.85;49.26172;934.2065;;;;
2023/07/28 07:13:15;;;;;;;3;1.6;;;;;;;27.81;44.76367;934.1421;;;;
2023/07/28 07:15:41;;;;;;;2.9;1.8;;;;;;;28;43.79688;934.1489;;;;
2023/07/28 07:18:08;;;;;;;2;1.8;;;;;;;28.72;42.07031;934.1121;;;;
2023/07/28 07:27:18;;;;;;;2.4;1.7;;;;;;;31.76;37.23926;933.9363;;;;
2023/07/28 07:29:48;;;;;;;1.7;1.6;;;;;;;31.17;35.54004;933.9039;;;;
2023/07/28 07:32:17;;;;;;;1.5;1.4;;;;;;;29.98;36.43652;933.901;;;;
2023/07/28 07:34:50;;;;;;;3;1.6;;;;;;;29.89;37.14551;933.8558;;;;
2023/07/28 07:37:15;;;;;;;2.6;1.5;;;;;;;30.35;36.99219;933.7858;;;;
2023/07/28 07:43:31;;;;;;;2.2;1.7;;;;;;;30.29;38.58691;933.7476;;;;
2023/07/28 07:45:56;;;;;;;1.9;1.6;;;;;;;30.37;37.68555;933.7687;;;;
2023/07/28 07:48:56;;;;;;;1.9;1.7;;;;;;;30.42;37.12891;933.7502;;;;
2023/07/28 07:51:26;;;;;;;2.3;1.7;;;;;;;32.27;36.37012;933.7744;;;;
2023/07/28 07:53:51;;;;;;;1.8;1.6;;;;;;;31.72;35.22461;933.7059;;;;
2023/07/28 07:59:48;;;;;;;2.4;1.5;;;;;;;29.62;37.89844;933.726;;;;
2023/07/28 08:02:47;;;;;;;1.6;1.5;;;;;;;29.05;40.10059;933.7712;;;;
2023/07/28 08:05:01;;;;;;;1.9;1.5;;;;;;;27.91;41.98242;933.7197;;;;
2023/07/28 08:07:27;;;;;;;2.4;1.6;;;;;;;28.52;43.0498;933.7499;;;;
2023/07/28 08:09:53;;;;;;;1.6;1.5;;;;;;;30.28;40.98535;933.7007;;;;
2023/07/28 08:12:21;;;;;;;2;1.8;;;;;;;30.47;38.60254;933.6777;;;;
2023/07/28 08:14:47;;;;;;;2.4;1.8;;;;;;;31.67;36.11816;933.6537;;;;
2023/07/28 08:17:16;;;;;;;2.1;1.6;;;;;;;32.52;36.10156;933.6386;;;;
2023/07/28 08:19:47;;;;;;;2;1.7;;;;;;;31.76;35.96973;933.5719;;;;
2023/07/28 08:22:15;;;;;;;2.6;1.5;;;;;;;32.31;35.76172;933.5683;;;;
2023/07/28 08:24:40;;;;;;;1.8;1.7;;;;;;;32.23;34.96387;933.5645;;;;
2023/07/28 08:27:05;;;;;;;1.7;1.6;;;;;;;32.76;37.69336;933.6323;;;;
2023/07/28 08:29:30;;;;;;;1.7;1.6;;;;;;;33.28;34.50391;933.5715;;;;
2023/07/28 08:31:57;;;;;;;1.6;1.5;;;;;;;32.72;34.86914;933.555;;;;
2023/07/28 08:34:23;;;;;;;1.9;1.8;;;;;;;33.22;35.48438;933.6013;;;;
2023/07/28 08:36:49;;;;;;;2.3;1.8;;;;;;;32.98;33.06348;933.6216;;;;
2023/07/28 08:44:41;;;;;;;2.5;1.6;;;;;;;31.2;39.16699;933.6067;;;;
2023/07/28 08:47:16;;;;;;;2.9;1.9;;;;;;;29.97;42.93945;933.6294;;;;
2023/07/28 08:56:15;;;;;;;2.1;1.8;;;;;;;27.88;46.0293;933.6373;;;;
2023/07/28 08:59:18;;;;;;;2.9;1.7;;;;;;;28.37;48.1123;933.6226;;;;
2023/07/28 09:01:44;;;;;;;2.5;1.9;;;;;;;29.11;49.46582;933.6138;;;;
2023/07/28 09:04:08;;;;;;;2.4;1.8;;;;;;;28.94;49.375;933.6328;;;;
2023/07/28 09:06:34;;;;;;;1.7;1.6;;;;;;;29.33;50.47949;933.6876;;;;
2023/07/28 09:08:59;;;;;;;2;1.7;;;;;;;28.56;47.76465;933.7872;;;;
2023/07/28 09:11:29;;;;;;;2.3;1.6;;;;;;;27.7;48.95508;933.7656;;;;
2023/07/28 09:13:52;;;;;;;2.3;2;;;;;;;27.99;46.62305;933.777;;;;
2023/07/28 09:16:18;;;;;;;3.1;1.6;;;;;;;28.86;45.16602;933.742;;;;
2023/07/28 09:18:43;;;;;;;3.4;2;;;;;;;29.11;46.02441;933.7178;;;;
2023/07/28 09:21:12;;;;;;;3.7;1.8;;;;;;;29.18;48.4375;933.745;;;;
2023/07/28 09:23:37;;;;;;;1.5;1.3;;;;;;;29.52;41.97754;933.7326;;;;
2023/07/28 09:26:04;;;;;;;3;1.7;;;;;;;29.6;41.55664;933.706;;;;
2023/07/28 09:28:29;;;;;;;2.7;1.8;;;;;;;29.26;42.88184;933.693;;;;
2023/07/28 09:30:55;;;;;;;2.1;1.7;;;;;;;29.62;42.54688;933.6803;;;;
2023/07/28 09:33:20;;;;;;;1.8;1.5;;;;;;;29.82;42.14844;933.6817;;;;
2023/07/28 09:35:48;;;;;;;1.9;1.7;;;;;;;29.9;43.55176;933.5949;;;;
2023/07/28 09:38:13;;;;;;;3.5;1.9;;;;;;;29.47;45.96582;933.5875;;;;
2023/07/28 09:40:49;;;;;;;2.1;1.8;;;;;;;29.53;44.24414;933.5011;;;;
2023/07/28 09:43:42;;;;;;;2.4;1.9;;;;;;;29.13;47.68164;933.4019;;;;
2023/07/28 09:46:16;;;;;;;3.7;1.9;;;;;;;29.29;45.48242;933.3666;;;;
2023/07/28 09:48:32;;;;;;;2.4;1.6;;;;;;;28.56;48.5127;933.3474;;;;
2023/07/28 09:50:57;;;;;;;2;1.8;;;;;;;29.34;47.21582;933.3301;;;;
2023/07/28 09:53:22;;;;;;;2.5;1.9;;;;;;;30.16;42.72949;933.3865;;;;
2023/07/28 09:55:47;;;;;;;2;1.8;;;;;;;30.22;43.72656;933.3744;;;;
2023/07/28 09:58:14;;;;;;;2.6;1.9;;;;;;;29.84;46.02734;933.3752;;;;
2023/07/28 10:00:38;;;;;;;1.7;1.6;;;;;;;30.05;43.95996;933.3511;;;;
2023/07/28 10:03:09;;;;;;;2.5;2;;;;;;;29.3;46.31738;933.3154;;;;
2023/07/28 10:05:29;;;;;;;2;1.8;;;;;;;30.1;44.21484;933.2109;;;;
2023/07/28 10:07:56;;;;;;;2;1.8;;;;;;;30.54;42.02539;933.2281;;;;
2023/07/28 10:10:21;;;;;;;1.9;1.7;;;;;;;30.81;40.28027;933.2241;;;;
2023/07/28 10:12:50;;;;;;;5.1;1.8;;;;;;;31.13;39.95117;933.2147;;;;
2023/07/28 10:15:21;;;;;;;3.4;1.9;;;;;;;30.68;42.62305;933.2004;;;;
2023/07/28 10:17:49;;;;;;;2.4;1.8;;;;;;;30.82;42.79297;933.2219;;;;
2023/07/28 10:20:14;;;;;;;1.9;1.6;;;;;;;30.21;42.3291;933.1753;;;;
2023/07/28 10:22:41;;;;;;;1.9;1.8;;;;;;;30.55;39.57715;933.2408;;;;
2023/07/28 10:25:08;;;;;;;2.1;1.9;;;;;;;30.28;40.73438;933.3458;;;;
2023/07/28 10:27:34;;;;;;;2.5;1.7;;;;;;;30.54;40.4248;933.2363;;;;
2023/07/28 10:30:00;;;;;;;2.6;1.9;;;;;;;30.23;41.03027;933.2921;;;;
2023/07/28 10:32:24;;;;;;;2.7;2;;;;;;;30.39;42.08398;933.3123;;;;
2023/07/28 10:34:49;;;;;;;2.1;1.8;;;;;;;30.29;42.70605;933.3351;;;;
2023/07/28 10:37:17;;;;;;;2.4;2.1;;;;;;;29.71;43.40332;933.3092;;;;
2023/07/28 10:39:42;;;;;;;2.1;1.9;;;;;;;29.32;45.84277;933.2762;;;;
2023/07/28 10:42:08;;;;;;;2.2;1.9;;;;;;;29.23;47.39453;933.3723;;;;
2023/07/28 10:44:32;;;;;;;2.5;1.8;;;;;;;28.62;47.21191;933.4127;;;;
2023/07/28 10:46:57;;;;;;;3.4;2;;;;;;;28.65;46.60742;933.3535;;;;
2023/07/28 10:49:25;;;;;;;2.1;1.9;;;;;;;28.21;46.99023;933.2946;;;;
2023/07/28 10:51:50;;;;;;;2;1.8;;;;;;;27.98;48.09473;933.3409;;;;
2023/07/28 10:54:20;;;;;;;2.9;1.9;;;;;;;27.79;47.72949;933.3726;;;;
2023/07/28 10:56:41;;;;;;;2;1.8;;;;;;;27.58;50.18848;933.4476;;;;
2023/07/28 10:59:08;;;;;;;2.3;2.1;;;;;;;27.38;49.25293;933.4731;;;;
2023/07/28 11:01:34;;;;;;;2.3;2;;;;;;;27.24;48.80957;933.4363;;;;
2023/07/28 11:04:02;;;;;;;2.3;1.9;;;;;;;26.98;49.62402;933.498;;;;
2023/07/28 11:06:28;;;;;;;3.5;2.1;;;;;;;26.6;53.11035;933.5308;;;;
2023/07/28 11:08:54;;;;;;;2.3;2.1;;;;;;;26.44;52.71289;933.5508;;;;
2023/07/28 11:11:19;;;;;;;2;1.8;;;;;;;26.22;52.33203;933.5621;;;;
2023/07/28 11:13:45;;;;;;;3.8;1.8;;;;;;;26.07;53.37891;933.5834;;;;
2023/07/28 11:16:12;;;;;;;2.5;2.1;;;;;;;25.64;53.85938;933.5335;;;;
2023/07/28 11:18:37;;;;;;;2.3;1.9;;;;;;;25.27;54.67676;933.5739;;;;
2023/07/28 11:21:03;;;;;;;2.4;2;;;;;;;25.1;56.20117;933.4882;;;;
2023/07/28 11:23:28;;;;;;;3;2.3;;;;;;;24.66;59.88477;933.5491;;;;
2023/07/28 11:25:55;;;;;;;2.2;1.7;;;;;;;24.7;59.86621;933.5991;;;;
2023/07/28 11:28:20;;;;;;;2;1.8;;;;;;;24.93;57.99707;933.58;;;;
2023/07/28 11:30:48;;;;;;;3.9;2.1;;;;;;;24.98;56.31641;933.5471;;;;
2023/07/28 11:33:13;;;;;;;2.7;1.8;;;;;;;25.11;57.91406;933.5359;;;;
2023/07/28 11:35:39;;;;;;;3.2;2;;;;;;;25.23;57.10449;933.532;;;;
2023/07/28 11:38:04;;;;;;;2.4;2;;;;;;;25.17;56.55273;933.5416;;;;
2023/07/28 11:40:30;;;;;;;3.2;1.8;;;;;;;25.11;56.28613;933.5594;;;;
2023/07/28 11:42:56;;;;;;;2.2;2;;;;;;;25.08;56.03418;933.6144;;;;
2023/07/28 11:45:24;;;;;;;2.3;1.9;;;;;;;24.99;57.06152;933.5859;;;;
2023/07/28 11:47:49;;;;;;;2.3;1.8;;;;;;;24.75;58.77539;933.6886;;;;
2023/07/28 11:50:18;;;;;;;2.3;1.9;;;;;;;24.82;58.7373;933.6965;;;;
2023/07/28 11:52:43;;;;;;;3.1;2.1;;;;;;;24.84;58.94043;933.7195;;;;
2023/07/28 11:55:11;;;;;;;3.1;1.9;;;;;;;24.71;59.72559;933.7665;;;;
2023/07/28 11:57:36;;;;;;;2;1.8;;;;;;;24.64;60.08301;933.7628;;;;
2023/07/28 12:00:03;;;;;;;2.4;1.9;;;;;;;24.63;61.05859;933.7927;;;;
2023/07/28 12:02:27;;;;;;;2.2;1.9;;;;;;;24.73;60.50684;933.7713;;;;
2023/07/28 12:04:54;;;;;;;2.2;2;;;;;;;24.67;59.03711;933.7612;;;;
2023/07/28 12:07:18;;;;;;;3.2;2.1;;;;;;;24.79;59.05371;933.8036;;;;
2023/07/28 12:09:43;;;;;;;2.3;1.9;;;;;;;24.92;58.43359;933.7972;;;;
2023/07/28 12:12:10;;;;;;;2.2;2;;;;;;;24.92;61.08691;933.8089;;;;
2023/07/28 12:14:35;;;;;;;2.7;2;;;;;;;25.03;60.94824;933.8546;;;;
2023/07/28 12:17:00;;;;;;;2.2;1.9;;;;;;;25.3;57.97559;933.8451;;;;
2023/07/28 12:19:28;;;;;;;2.7;2.1;;;;;;;25.39;56.72363;933.9046;;;;
2023/07/28 12:21:54;;;;;;;2.9;2;;;;;;;25.52;57.16504;933.9305;;;;
2023/07/28 12:24:19;;;;;;;2.2;2;;;;;;;25.41;56.77246;933.9166;;;;
2023/07/28 12:26:44;;;;;;;3.8;1.9;;;;;;;25.48;59.21387;933.8594;;;;
2023/07/28 12:29:09;;;;;;;2.7;2.1;;;;;;;25.61;58.77148;933.928;;;;
2023/07/28 12:31:34;;;;;;;2.2;1.8;;;;;;;25.51;60.16406;933.9441;;;;
2023/07/28 12:34:00;;;;;;;4.1;2;;;;;;;25.58;57.51367;933.9395;;;;
2023/07/28 12:36:25;;;;;;;2.5;2.2;;;;;;;25.52;57.04688;933.8898;;;;
2023/07/28 12:38:51;;;;;;;3;2.1;;;;;;;25.72;55.81738;933.9128;;;;
2023/07/28 12:41:16;;;;;;;3;2.1;;;;;;;25.76;55.65918;933.9061;;;;
2023/07/28 12:43:42;;;;;;;2.1;1.8;;;;;;;26.01;56.04297;933.9196;;;;
2023/07/28 12:46:07;;;;;;;3.5;2.1;;;;;;;26.2;55.83105;933.8705;;;;
2023/07/28 12:48:37;;;;;;;2.4;1.9;;;;;;;26.66;55.4502;933.846;;;;
2023/07/28 12:51:01;;;;;;;2.1;1.9;;;;;;;26.99;53.77246;933.7913;;;;
2023/07/28 12:53:26;;;;;;;2.2;1.9;;;;;;;27.2;54.02246;933.8002;;;;
2023/07/28 12:55:53;;;;;;;2.2;2;;;;;;;27.68;52.8584;933.7977;;;;
2023/07/28 12:58:18;;;;;;;2.7;2;;;;;;;27.69;50.7002;933.7159;;;;
2023/07/28 13:00:45;;;;;;;2.9;2;;;;;;;27.08;56.48535;933.7202;;;;
2023/07/28 13:03:11;;;;;;;3.8;2.2;;;;;;;27.11;55.79102;933.7506;;;;
2023/07/28 13:05:37;;;;;;;2.7;2;;;;;;;27.21;52.45996;933.8114;;;;
2023/07/28 13:08:02;;;;;;;2.9;2;;;;;;;27.47;52.31152;933.8;;;;
2023/07/28 13:10:28;;;;;;;2.5;1.8;;;;;;;27.04;54.97559;933.7878;;;;
2023/07/28 13:12:53;;;;;;;2.2;2;;;;;;;26.37;57.30957;933.7806;;;;
2023/07/28 13:15:22;;;;;;;2.8;2.1;;;;;;;26.69;53.60645;933.7651;;;;
2023/07/28 13:17:47;;;;;;;2.8;2.3;;;;;;;26.95;53.43555;933.7503;;;;
2023/07/28 13:20:14;;;;;;;3.2;2;;;;;;;26.95;56.41016;933.7447;;;;
2023/07/28 13:22:39;;;;;;;2.8;2;;;;;;;26.98;55.70313;933.8083;;;;
2023/07/28 13:25:04;;;;;;;2.1;1.9;;;;;;;27.02;51.16895;933.8074;;;;
2023/07/28 13:27:32;;;;;;;2.4;2.1;;;;;;;27.14;50.96875;933.8315;;;;
2023/07/28 13:29:57;;;;;;;4;1.9;;;;;;;26.88;54.56445;933.8233;;;;
2023/07/28 13:32:22;;;;;;;2.4;1.8;;;;;;;26.63;55.56543;933.7969;;;;
2023/07/28 13:34:47;;;;;;;1.8;1.7;;;;;;;26.16;57.22266;933.7534;;;;
2023/07/28 13:37:12;;;;;;;3;1.9;;;;;;;25.85;58.25781;933.8084;;;;
2023/07/28 13:39:38;;;;;;;3.6;2.5;;;;;;;25.61;58.28711;933.8653;;;;
2023/07/28 13:42:05;;;;;;;3;1.8;;;;;;;25.73;58.20801;933.8624;;;;
2023/07/28 13:44:29;;;;;;;2.1;1.9;;;;;;;26;56.63281;933.8287;;;;
2023/07/28 13:46:54;;;;;;;3.1;2.2;;;;;;;26.11;55.12207;933.85;;;;
2023/07/28 13:49:19;;;;;;;2.2;1.9;;;;;;;26.18;56.6084;933.8478;;;;
2023/07/28 13:51:47;;;;;;;2.5;1.8;;;;;;;26.13;54.86328;933.7587;;;;
2023/07/28 13:54:12;;;;;;;4.3;2.1;;;;;;;26.26;55.93262;933.7905;;;;
2023/07/28 13:56:38;;;;;;;2.8;2;;;;;;;26.69;56.22363;933.7811;;;;
2023/07/28 13:59:04;;;;;;;2.4;2;;;;;;;27.12;55.99219;933.8491;;;;
2023/07/28 14:01:28;;;;;;;2.4;2;;;;;;;27.31;54.87891;933.84;;;;
2023/07/28 14:03:56;;;;;;;3.6;2.1;;;;;;;27.38;52.94238;933.8438;;;;
2023/07/28 14:06:21;;;;;;;2.5;2.2;;;;;;;27.45;53.08008;933.7394;;;;
2023/07/28 14:08:47;;;;;;;3;2.3;;;;;;;27.18;55.76465;933.7783;;;;
2023/07/28 14:11:12;;;;;;;3.2;2.2;;;;;;;26.88;56.31836;933.7392;;;;
2023/07/28 14:13:39;;;;;;;2.8;2;;;;;;;26.47;55.1416;933.7004;;;;
2023/07/28 14:16:04;;;;;;;3;1.9;;;;;;;26.45;55.75488;933.736;;;;
2023/07/28 14:18:33;;;;;;;2.9;2;;;;;;;26.5;55.72656;933.7042;;;;
2023/07/28 14:20:57;;;;;;;3.1;2.1;;;;;;;26.25;56.31055;933.7232;;;;
2023/07/28 14:23:26;;;;;;;2;1.8;;;;;;;25.74;58.18555;933.7525;;;;
2023/07/28 14:25:51;;;;;;;2.6;2;;;;;;;25.94;55.64648;933.6834;;;;
2023/07/28 14:28:18;;;;;;;2.7;2.2;;;;;;;26;55.65332;933.6333;;;;
2023/07/28 14:30:46;;;;;;;2.3;2.1;;;;;;;26.34;56.22852;933.5644;;;;
2023/07/28 14:33:08;;;;;;;2.4;2.2;;;;;;;26.47;53.0957;933.4852;;;;
2023/07/28 14:35:33;;;;;;;2.7;2;;;;;;;26.56;53.41211;933.4509;;;;
2023/07/28 14:38:00;;;;;;;2.8;2.1;;;;;;;26.5;52.4707;933.4373;;;;
2023/07/28 14:40:28;;;;;;;2.1;1.9;;;;;;;26.44;54.47656;933.4445;;;;
2023/07/28 14:42:54;;;;;;;2.6;1.8;;;;;;;26.44;53.30371;933.454;;;;
2023/07/28 14:45:20;;;;;;;2.9;2.2;;;;;;;26.46;54.27734;933.3797;;;;
2023/07/28 14:47:44;;;;;;;2.7;2.2;;;;;;;26.25;55.69531;933.2896;;;;
2023/07/28 14:50:09;;;;;;;3.4;2.2;;;;;;;26.11;55.14453;933.3013;;;;
2023/07/28 14:52:36;;;;;;;2.2;2;;;;;;;26.24;54.66406;933.2628;;;;
2023/07/28 14:55:01;;;;;;;3.1;2.2;;;;;;;26.33;54.33203;933.2076;;;;
2023/07/28 14:57:29;;;;;;;2.8;2.1;;;;;;;26.42;53.43262;933.1541;;;;
2023/07/28 14:59:55;;;;;;;3;2;;;;;;;26.38;53.90137;933.1948;;;;
2023/07/28 15:02:20;;;;;;;4.3;2.4;;;;;;;26.49;52.83691;933.1749;;;;
2023/07/28 15:04:48;;;;;;;2.5;2;;;;;;;26.55;53.67285;933.2216;;;;
2023/07/28 15:07:11;;;;;;;3;2.2;;;;;;;26.59;53.81836;933.1812;;;;
2023/07/28 15:09:38;;;;;;;2.2;2;;;;;;;26.76;53.68555;933.2095;;;;
2023/07/28 15:12:03;;;;;;;2.5;2.2;;;;;;;26.7;55.76367;933.2576;;;;
2023/07/28 15:14:29;;;;;;;2.6;2.1;;;;;;;26.61;53.49023;933.1666;;;;
2023/07/28 15:16:54;;;;;;;2.4;2.1;;;;;;;26.38;55.16699;933.1694;;;;
2023/07/28 15:19:23;;;;;;;2.4;2.1;;;;;;;26.15;56.59375;933.1908;;;;
2023/07/28 15:21:49;;;;;;;2.8;2.2;;;;;;;25.98;57.18652;933.2522;;;;
2023/07/28 15:24:15;;;;;;;2.9;2.2;;;;;;;26.11;57.34473;933.2556;;;;
2023/07/28 15:26:40;;;;;;;2.5;2.3;;;;;;;26.07;58.0625;933.2463;;;;
2023/07/28 15:29:08;;;;;;;3.2;2.1;;;;;;;26.05;58.26074;933.3273;;;;
2023/07/28 15:31:33;;;;;;;2.9;2.4;;;;;;;26.16;56.98633;933.2659;;;;